sensor_id;sensor_type;location;lat;lon;timestamp;temperature;humidity
19928;DHT22;10126;50.876;4.470;2022-08-21T00:01:36;18.20;99.90
19928;DHT22;10126;50.876;4.470;2022-08-21T00:03:36;18.20;99.90
19928;DHT22;10126;50.876;4.470;2022-08-21T00:05:41;18.30;99.90
19928;DHT22;10126;50.876;4.470;2022-08-21T00:07:42;18.20;99.90
19928;DHT22;10126;50.876;4.470;2022-08-21T00:09:43;18.20;99.90
19928;DHT22;10126;50.876;4.470;2022-08-21T00:11:43;18.10;99.90
19928;DHT22;10126;50.876;4.470;2022-08-21T00:13:44;18.00;99.90
19928;DHT22;10126;50.876;4.470;2022-08-21T00:15:46;18.00;99.90
19928;DHT22;10126;50.876;4.470;2022-08-21T00:17:47;18.10;99.90
19928;DHT22;10126;50.876;4.470;2022-08-21T00:19:48;18.10;99.90
19928;DHT22;10126;50.876;4.470;2022-08-21T00:21:48;18.20;99.90
19928;DHT22;10126;50.876;4.470;2022-08-21T00:23:49;18.10;99.90
19928;DHT22;10126;50.876;4.470;2022-08-21T00:25:50;18.00;99.90
19928;DHT22;10126;50.876;4.470;2022-08-21T00:27:50;18.00;99.90
19928;DHT22;10126;50.876;4.470;2022-08-21T00:29:52;18.00;99.90
19928;DHT22;10126;50.876;4.470;2022-08-21T00:31:54;17.80;99.90
19928;DHT22;10126;50.876;4.470;2022-08-21T00:33:54;17.80;99.90
19928;DHT22;10126;50.876;4.470;2022-08-21T00:35:55;17.80;99.90
19928;DHT22;10126;50.876;4.470;2022-08-21T00:37:56;17.80;99.90
19928;DHT22;10126;50.876;4.470;2022-08-21T00:39:57;17.70;99.90
19928;DHT22;10126;50.876;4.470;2022-08-21T00:41:58;17.70;99.90
19928;DHT22;10126;50.876;4.470;2022-08-21T00:43:58;17.70;99.90
19928;DHT22;10126;50.876;4.470;2022-08-21T00:46:04;17.70;99.90
19928;DHT22;10126;50.876;4.470;2022-08-21T00:48:06;17.60;99.90
19928;DHT22;10126;50.876;4.470;2022-08-21T00:50:08;17.70;99.90
19928;DHT22;10126;50.876;4.470;2022-08-21T00:52:15;17.70;99.90
19928;DHT22;10126;50.876;4.470;2022-08-21T00:54:19;17.60;99.90
19928;DHT22;10126;50.876;4.470;2022-08-21T00:56:21;17.50;99.90
19928;DHT22;10126;50.876;4.470;2022-08-21T00:58:22;17.40;99.90
19928;DHT22;10126;50.876;4.470;2022-08-21T01:00:29;17.40;99.90
19928;DHT22;10126;50.876;4.470;2022-08-21T01:02:29;17.40;99.90
19928;DHT22;10126;50.876;4.470;2022-08-21T01:04:30;17.30;99.90
19928;DHT22;10126;50.876;4.470;2022-08-21T01:06:31;17.20;99.90
19928;DHT22;10126;50.876;4.470;2022-08-21T01:08:33;17.20;99.90
19928;DHT22;10126;50.876;4.470;2022-08-21T01:10:35;17.20;99.90
19928;DHT22;10126;50.876;4.470;2022-08-21T01:12:36;17.30;99.90
19928;DHT22;10126;50.876;4.470;2022-08-21T01:14:37;17.30;99.90
19928;DHT22;10126;50.876;4.470;2022-08-21T01:16:45;17.40;99.90
19928;DHT22;10126;50.876;4.470;2022-08-21T01:18:46;17.30;99.90
19928;DHT22;10126;50.876;4.470;2022-08-21T01:21:08;17.30;99.90
19928;DHT22;10126;50.876;4.470;2022-08-21T01:23:09;17.40;99.90
19928;DHT22;10126;50.876;4.470;2022-08-21T01:25:12;17.50;99.90
19928;DHT22;10126;50.876;4.470;2022-08-21T01:27:13;17.40;99.90
19928;DHT22;10126;50.876;4.470;2022-08-21T01:31:19;17.20;99.90
19928;DHT22;10126;50.876;4.470;2022-08-21T01:33:24;17.20;99.90
19928;DHT22;10126;50.876;4.470;2022-08-21T01:35:25;17.20;99.90
19928;DHT22;10126;50.876;4.470;2022-08-21T01:37:25;17.30;99.90
19928;DHT22;10126;50.876;4.470;2022-08-21T01:39:26;17.20;99.90
19928;DHT22;10126;50.876;4.470;2022-08-21T01:41:27;17.30;99.90
19928;DHT22;10126;50.876;4.470;2022-08-21T01:43:27;17.30;99.90
19928;DHT22;10126;50.876;4.470;2022-08-21T01:45:28;17.30;99.90
19928;DHT22;10126;50.876;4.470;2022-08-21T01:47:29;17.20;99.90
19928;DHT22;10126;50.876;4.470;2022-08-21T01:49:30;17.00;99.90
19928;DHT22;10126;50.876;4.470;2022-08-21T01:51:30;17.00;99.90
19928;DHT22;10126;50.876;4.470;2022-08-21T01:53:32;17.00;99.90
19928;DHT22;10126;50.876;4.470;2022-08-21T01:55:35;17.00;99.90
19928;DHT22;10126;50.876;4.470;2022-08-21T01:57:36;16.90;99.90
19928;DHT22;10126;50.876;4.470;2022-08-21T01:59:37;16.70;99.90
19928;DHT22;10126;50.876;4.470;2022-08-21T02:01:40;16.70;99.90
19928;DHT22;10126;50.876;4.470;2022-08-21T02:03:41;16.70;99.90
19928;DHT22;10126;50.876;4.470;2022-08-21T02:05:42;16.70;99.90
19928;DHT22;10126;50.876;4.470;2022-08-21T02:07:47;16.70;99.90
19928;DHT22;10126;50.876;4.470;2022-08-21T02:09:48;16.70;99.90
19928;DHT22;10126;50.876;4.470;2022-08-21T02:11:49;16.60;99.90
19928;DHT22;10126;50.876;4.470;2022-08-21T02:13:50;16.50;99.90
19928;DHT22;10126;50.876;4.470;2022-08-21T02:15:50;16.50;99.90
19928;DHT22;10126;50.876;4.470;2022-08-21T02:17:54;16.40;99.90
19928;DHT22;10126;50.876;4.470;2022-08-21T02:19:56;16.40;99.90
19928;DHT22;10126;50.876;4.470;2022-08-21T02:21:56;16.30;99.90
19928;DHT22;10126;50.876;4.470;2022-08-21T02:23:57;16.00;99.90
19928;DHT22;10126;50.876;4.470;2022-08-21T02:25:59;15.90;99.90
19928;DHT22;10126;50.876;4.470;2022-08-21T02:28:04;16.00;99.90
19928;DHT22;10126;50.876;4.470;2022-08-21T02:30:05;16.00;99.90
19928;DHT22;10126;50.876;4.470;2022-08-21T02:32:06;16.00;99.90
19928;DHT22;10126;50.876;4.470;2022-08-21T02:34:07;16.10;99.90
19928;DHT22;10126;50.876;4.470;2022-08-21T02:36:10;15.90;99.90
19928;DHT22;10126;50.876;4.470;2022-08-21T02:38:15;15.80;99.90
19928;DHT22;10126;50.876;4.470;2022-08-21T02:40:17;15.70;99.90
19928;DHT22;10126;50.876;4.470;2022-08-21T02:42:19;15.60;99.90
19928;DHT22;10126;50.876;4.470;2022-08-21T02:44:19;15.60;99.90
19928;DHT22;10126;50.876;4.470;2022-08-21T02:46:20;15.50;99.90
19928;DHT22;10126;50.876;4.470;2022-08-21T02:48:25;15.30;99.90
19928;DHT22;10126;50.876;4.470;2022-08-21T02:50:29;15.30;99.90
19928;DHT22;10126;50.876;4.470;2022-08-21T02:52:30;15.30;99.90
19928;DHT22;10126;50.876;4.470;2022-08-21T02:54:31;15.20;99.90
19928;DHT22;10126;50.876;4.470;2022-08-21T02:56:32;15.20;99.90
19928;DHT22;10126;50.876;4.470;2022-08-21T02:58:40;15.30;99.90
19928;DHT22;10126;50.876;4.470;2022-08-21T03:00:42;15.40;99.90
19928;DHT22;10126;50.876;4.470;2022-08-21T03:02:43;15.50;99.90
19928;DHT22;10126;50.876;4.470;2022-08-21T03:04:46;15.60;99.90
19928;DHT22;10126;50.876;4.470;2022-08-21T03:06:47;15.60;99.90
19928;DHT22;10126;50.876;4.470;2022-08-21T03:08:49;15.60;99.90
19928;DHT22;10126;50.876;4.470;2022-08-21T03:10:51;15.70;99.90
19928;DHT22;10126;50.876;4.470;2022-08-21T03:12:52;15.60;99.90
19928;DHT22;10126;50.876;4.470;2022-08-21T03:14:53;15.60;99.90
19928;DHT22;10126;50.876;4.470;2022-08-21T03:16:53;15.50;99.90
19928;DHT22;10126;50.876;4.470;2022-08-21T03:18:54;15.50;99.90
19928;DHT22;10126;50.876;4.470;2022-08-21T03:20:54;15.30;99.90
19928;DHT22;10126;50.876;4.470;2022-08-21T03:22:55;15.20;99.90
19928;DHT22;10126;50.876;4.470;2022-08-21T03:24:56;15.10;99.90
19928;DHT22;10126;50.876;4.470;2022-08-21T03:26:59;15.10;99.90
19928;DHT22;10126;50.876;4.470;2022-08-21T03:29:00;15.20;99.90
19928;DHT22;10126;50.876;4.470;2022-08-21T03:31:01;15.10;99.90
19928;DHT22;10126;50.876;4.470;2022-08-21T03:33:01;15.10;99.90
19928;DHT22;10126;50.876;4.470;2022-08-21T03:35:04;15.10;99.90
19928;DHT22;10126;50.876;4.470;2022-08-21T03:37:06;15.10;99.90
19928;DHT22;10126;50.876;4.470;2022-08-21T03:39:07;15.10;99.90
19928;DHT22;10126;50.876;4.470;2022-08-21T03:41:08;14.90;99.90
19928;DHT22;10126;50.876;4.470;2022-08-21T03:43:09;14.90;99.90
19928;DHT22;10126;50.876;4.470;2022-08-21T03:45:09;14.90;99.90
19928;DHT22;10126;50.876;4.470;2022-08-21T03:47:10;14.90;99.90
19928;DHT22;10126;50.876;4.470;2022-08-21T03:49:11;14.90;99.90
19928;DHT22;10126;50.876;4.470;2022-08-21T03:51:12;14.80;99.90
19928;DHT22;10126;50.876;4.470;2022-08-21T03:53:14;14.80;99.90
19928;DHT22;10126;50.876;4.470;2022-08-21T03:55:15;14.90;99.90
19928;DHT22;10126;50.876;4.470;2022-08-21T03:57:16;14.90;99.90
19928;DHT22;10126;50.876;4.470;2022-08-21T03:59:18;15.00;99.90
19928;DHT22;10126;50.876;4.470;2022-08-21T04:01:19;14.90;99.90
19928;DHT22;10126;50.876;4.470;2022-08-21T04:03:20;14.90;99.90
19928;DHT22;10126;50.876;4.470;2022-08-21T04:05:21;14.80;99.90
19928;DHT22;10126;50.876;4.470;2022-08-21T04:07:27;14.80;99.90
19928;DHT22;10126;50.876;4.470;2022-08-21T04:09:28;14.80;99.90
19928;DHT22;10126;50.876;4.470;2022-08-21T04:11:28;14.70;99.90
19928;DHT22;10126;50.876;4.470;2022-08-21T04:13:29;14.80;99.90
19928;DHT22;10126;50.876;4.470;2022-08-21T04:15:30;14.90;99.90
19928;DHT22;10126;50.876;4.470;2022-08-21T04:17:31;15.00;99.90
19928;DHT22;10126;50.876;4.470;2022-08-21T04:19:31;14.90;99.90
19928;DHT22;10126;50.876;4.470;2022-08-21T04:21:32;14.80;99.90
19928;DHT22;10126;50.876;4.470;2022-08-21T04:23:33;14.80;99.90
19928;DHT22;10126;50.876;4.470;2022-08-21T04:25:34;14.70;99.90
19928;DHT22;10126;50.876;4.470;2022-08-21T04:27:35;14.70;99.90
19928;DHT22;10126;50.876;4.470;2022-08-21T04:29:36;14.70;99.90
19928;DHT22;10126;50.876;4.470;2022-08-21T04:31:36;14.60;99.90
19928;DHT22;10126;50.876;4.470;2022-08-21T04:33:37;14.70;99.90
19928;DHT22;10126;50.876;4.470;2022-08-21T04:35:38;14.70;99.90
19928;DHT22;10126;50.876;4.470;2022-08-21T04:37:38;14.70;99.90
19928;DHT22;10126;50.876;4.470;2022-08-21T04:39:39;14.60;99.90
19928;DHT22;10126;50.876;4.470;2022-08-21T04:41:40;14.70;99.90
19928;DHT22;10126;50.876;4.470;2022-08-21T04:43:41;14.70;99.90
19928;DHT22;10126;50.876;4.470;2022-08-21T04:45:45;14.90;99.90
19928;DHT22;10126;50.876;4.470;2022-08-21T04:47:47;14.80;99.90
19928;DHT22;10126;50.876;4.470;2022-08-21T04:49:48;14.90;99.90
19928;DHT22;10126;50.876;4.470;2022-08-21T04:51:50;15.00;99.90
19928;DHT22;10126;50.876;4.470;2022-08-21T04:53:54;15.20;99.90
19928;DHT22;10126;50.876;4.470;2022-08-21T04:55:56;15.20;99.90
19928;DHT22;10126;50.876;4.470;2022-08-21T04:57:57;15.30;99.90
19928;DHT22;10126;50.876;4.470;2022-08-21T05:00:00;15.30;99.90
19928;DHT22;10126;50.876;4.470;2022-08-21T05:02:02;15.30;99.90
19928;DHT22;10126;50.876;4.470;2022-08-21T05:04:04;15.40;99.90
19928;DHT22;10126;50.876;4.470;2022-08-21T05:06:08;15.30;99.90
19928;DHT22;10126;50.876;4.470;2022-08-21T05:08:15;15.20;99.90
19928;DHT22;10126;50.876;4.470;2022-08-21T05:10:18;15.20;99.90
19928;DHT22;10126;50.876;4.470;2022-08-21T05:12:20;15.30;99.90
19928;DHT22;10126;50.876;4.470;2022-08-21T05:14:22;15.40;99.90
19928;DHT22;10126;50.876;4.470;2022-08-21T05:16:22;15.50;99.90
19928;DHT22;10126;50.876;4.470;2022-08-21T05:18:23;15.60;99.90
19928;DHT22;10126;50.876;4.470;2022-08-21T05:20:24;15.70;99.90
19928;DHT22;10126;50.876;4.470;2022-08-21T05:22:25;15.80;99.90
19928;DHT22;10126;50.876;4.470;2022-08-21T05:24:26;15.80;99.90
19928;DHT22;10126;50.876;4.470;2022-08-21T05:26:26;15.90;99.90
19928;DHT22;10126;50.876;4.470;2022-08-21T05:28:27;15.90;99.90
19928;DHT22;10126;50.876;4.470;2022-08-21T05:30:28;16.10;99.90
19928;DHT22;10126;50.876;4.470;2022-08-21T05:32:28;16.20;99.90
19928;DHT22;10126;50.876;4.470;2022-08-21T05:34:29;16.30;99.90
19928;DHT22;10126;50.876;4.470;2022-08-21T05:36:30;16.60;99.90
19928;DHT22;10126;50.876;4.470;2022-08-21T05:38:31;16.80;99.90
19928;DHT22;10126;50.876;4.470;2022-08-21T05:40:32;17.40;99.90
19928;DHT22;10126;50.876;4.470;2022-08-21T05:42:33;18.60;99.90
19928;DHT22;10126;50.876;4.470;2022-08-21T05:44:33;19.80;99.90
19928;DHT22;10126;50.876;4.470;2022-08-21T05:46:34;20.90;99.90
19928;DHT22;10126;50.876;4.470;2022-08-21T05:48:36;21.60;99.90
19928;DHT22;10126;50.876;4.470;2022-08-21T05:50:36;21.90;99.90
19928;DHT22;10126;50.876;4.470;2022-08-21T05:52:38;22.40;99.90
19928;DHT22;10126;50.876;4.470;2022-08-21T05:54:39;23.30;99.90
19928;DHT22;10126;50.876;4.470;2022-08-21T05:56:39;24.20;99.90
19928;DHT22;10126;50.876;4.470;2022-08-21T05:58:40;24.80;99.90
19928;DHT22;10126;50.876;4.470;2022-08-21T06:00:42;25.60;99.90
19928;DHT22;10126;50.876;4.470;2022-08-21T06:02:43;26.30;99.90
19928;DHT22;10126;50.876;4.470;2022-08-21T06:04:43;27.30;99.90
19928;DHT22;10126;50.876;4.470;2022-08-21T06:06:44;27.80;99.90
19928;DHT22;10126;50.876;4.470;2022-08-21T06:08:45;28.50;99.90
19928;DHT22;10126;50.876;4.470;2022-08-21T06:10:47;29.00;99.90
19928;DHT22;10126;50.876;4.470;2022-08-21T06:12:53;29.50;99.90
19928;DHT22;10126;50.876;4.470;2022-08-21T06:14:54;29.50;99.90
19928;DHT22;10126;50.876;4.470;2022-08-21T06:17:05;30.30;99.90
19928;DHT22;10126;50.876;4.470;2022-08-21T06:19:11;30.80;99.90
19928;DHT22;10126;50.876;4.470;2022-08-21T06:21:12;31.20;99.90
19928;DHT22;10126;50.876;4.470;2022-08-21T06:23:13;32.00;99.90
19928;DHT22;10126;50.876;4.470;2022-08-21T06:25:14;32.30;99.90
19928;DHT22;10126;50.876;4.470;2022-08-21T06:27:17;33.00;99.10
19928;DHT22;10126;50.876;4.470;2022-08-21T06:29:20;33.10;98.00
19928;DHT22;10126;50.876;4.470;2022-08-21T06:31:23;33.80;96.20
19928;DHT22;10126;50.876;4.470;2022-08-21T06:33:24;33.90;95.00
19928;DHT22;10126;50.876;4.470;2022-08-21T06:35:27;34.40;93.70
19928;DHT22;10126;50.876;4.470;2022-08-21T06:37:29;33.70;93.40
19928;DHT22;10126;50.876;4.470;2022-08-21T06:39:30;34.20;92.70
19928;DHT22;10126;50.876;4.470;2022-08-21T06:41:32;34.10;92.20
19928;DHT22;10126;50.876;4.470;2022-08-21T06:43:33;33.70;91.90
19928;DHT22;10126;50.876;4.470;2022-08-21T06:45:34;33.40;92.20
19928;DHT22;10126;50.876;4.470;2022-08-21T06:47:34;33.10;92.50
19928;DHT22;10126;50.876;4.470;2022-08-21T06:49:35;33.20;92.60
19928;DHT22;10126;50.876;4.470;2022-08-21T06:51:36;34.00;91.90
19928;DHT22;10126;50.876;4.470;2022-08-21T06:53:37;34.20;91.30
19928;DHT22;10126;50.876;4.470;2022-08-21T06:55:39;33.80;90.90
19928;DHT22;10126;50.876;4.470;2022-08-21T06:57:40;33.10;91.70
19928;DHT22;10126;50.876;4.470;2022-08-21T06:59:40;33.00;92.50
19928;DHT22;10126;50.876;4.470;2022-08-21T07:01:41;32.70;92.50
19928;DHT22;10126;50.876;4.470;2022-08-21T07:03:43;32.50;93.20
19928;DHT22;10126;50.876;4.470;2022-08-21T07:05:43;33.30;92.00
19928;DHT22;10126;50.876;4.470;2022-08-21T07:07:46;34.10;91.30
19928;DHT22;10126;50.876;4.470;2022-08-21T07:09:47;34.20;91.00
19928;DHT22;10126;50.876;4.470;2022-08-21T07:11:50;34.00;90.70
19928;DHT22;10126;50.876;4.470;2022-08-21T07:13:52;33.10;91.60
19928;DHT22;10126;50.876;4.470;2022-08-21T07:15:54;33.90;90.70
19928;DHT22;10126;50.876;4.470;2022-08-21T07:17:55;34.80;90.00
19928;DHT22;10126;50.876;4.470;2022-08-21T07:19:56;33.90;90.40
19928;DHT22;10126;50.876;4.470;2022-08-21T07:22:00;33.10;91.00
19928;DHT22;10126;50.876;4.470;2022-08-21T07:24:02;33.80;91.00
19928;DHT22;10126;50.876;4.470;2022-08-21T07:26:03;34.40;90.10
19928;DHT22;10126;50.876;4.470;2022-08-21T07:28:04;33.70;90.70
19928;DHT22;10126;50.876;4.470;2022-08-21T07:30:05;33.50;91.20
19928;DHT22;10126;50.876;4.470;2022-08-21T07:32:06;32.60;92.90
19928;DHT22;10126;50.876;4.470;2022-08-21T07:34:07;32.20;92.70
19928;DHT22;10126;50.876;4.470;2022-08-21T07:36:09;33.10;92.30
19928;DHT22;10126;50.876;4.470;2022-08-21T07:38:10;33.00;92.40
19928;DHT22;10126;50.876;4.470;2022-08-21T07:40:11;30.50;94.90
19928;DHT22;10126;50.876;4.470;2022-08-21T07:42:11;29.70;97.70
19928;DHT22;10126;50.876;4.470;2022-08-21T07:44:12;29.60;98.30
19928;DHT22;10126;50.876;4.470;2022-08-21T07:46:13;30.30;98.10
19928;DHT22;10126;50.876;4.470;2022-08-21T07:48:15;30.40;98.00
19928;DHT22;10126;50.876;4.470;2022-08-21T07:50:16;30.50;97.90
19928;DHT22;10126;50.876;4.470;2022-08-21T07:52:16;30.70;97.30
19928;DHT22;10126;50.876;4.470;2022-08-21T07:54:17;31.20;96.80
19928;DHT22;10126;50.876;4.470;2022-08-21T07:56:18;31.80;95.90
19928;DHT22;10126;50.876;4.470;2022-08-21T07:58:19;31.70;95.90
19928;DHT22;10126;50.876;4.470;2022-08-21T08:00:22;30.80;96.70
19928;DHT22;10126;50.876;4.470;2022-08-21T08:02:28;30.40;97.00
19928;DHT22;10126;50.876;4.470;2022-08-21T08:04:29;29.80;98.30
19928;DHT22;10126;50.876;4.470;2022-08-21T08:06:30;29.50;99.40
19928;DHT22;10126;50.876;4.470;2022-08-21T08:08:31;29.00;99.90
19928;DHT22;10126;50.876;4.470;2022-08-21T08:10:36;29.20;99.70
19928;DHT22;10126;50.876;4.470;2022-08-21T08:12:39;29.20;99.90
19928;DHT22;10126;50.876;4.470;2022-08-21T08:14:40;28.60;99.90
19928;DHT22;10126;50.876;4.470;2022-08-21T08:16:40;28.90;99.90
19928;DHT22;10126;50.876;4.470;2022-08-21T08:18:41;28.50;99.90
19928;DHT22;10126;50.876;4.470;2022-08-21T08:20:42;28.60;99.90
19928;DHT22;10126;50.876;4.470;2022-08-21T08:22:44;27.80;99.90
19928;DHT22;10126;50.876;4.470;2022-08-21T08:24:46;27.40;99.90
19928;DHT22;10126;50.876;4.470;2022-08-21T08:26:47;27.50;99.90
19928;DHT22;10126;50.876;4.470;2022-08-21T08:28:48;27.50;99.90
19928;DHT22;10126;50.876;4.470;2022-08-21T08:30:48;27.80;99.90
19928;DHT22;10126;50.876;4.470;2022-08-21T08:32:50;27.90;99.90
19928;DHT22;10126;50.876;4.470;2022-08-21T08:34:51;27.50;99.90
19928;DHT22;10126;50.876;4.470;2022-08-21T08:36:52;27.70;99.90
19928;DHT22;10126;50.876;4.470;2022-08-21T08:38:53;27.20;99.90
19928;DHT22;10126;50.876;4.470;2022-08-21T08:43:03;28.30;99.90
19928;DHT22;10126;50.876;4.470;2022-08-21T08:45:12;29.10;99.90
19928;DHT22;10126;50.876;4.470;2022-08-21T08:47:16;30.00;99.90
19928;DHT22;10126;50.876;4.470;2022-08-21T08:49:27;29.90;99.90
19928;DHT22;10126;50.876;4.470;2022-08-21T08:51:49;31.10;99.10
19928;DHT22;10126;50.876;4.470;2022-08-21T08:53:57;32.00;98.00
19928;DHT22;10126;50.876;4.470;2022-08-21T08:56:01;32.80;96.00
19928;DHT22;10126;50.876;4.470;2022-08-21T08:58:03;32.70;95.20
19928;DHT22;10126;50.876;4.470;2022-08-21T09:00:07;32.50;95.50
19928;DHT22;10126;50.876;4.470;2022-08-21T09:02:12;33.10;94.70
19928;DHT22;10126;50.876;4.470;2022-08-21T09:04:24;33.50;93.70
19928;DHT22;10126;50.876;4.470;2022-08-21T09:08:54;33.80;92.20
19928;DHT22;10126;50.876;4.470;2022-08-21T09:11:03;33.40;92.60
19928;DHT22;10126;50.876;4.470;2022-08-21T09:13:13;32.70;92.40
19928;DHT22;10126;50.876;4.470;2022-08-21T09:15:36;32.60;93.10
19928;DHT22;10126;50.876;4.470;2022-08-21T09:20:41;32.60;92.00
19928;DHT22;10126;50.876;4.470;2022-08-21T09:25:24;33.60;92.00
19928;DHT22;10126;50.876;4.470;2022-08-21T09:27:25;33.80;91.30
19928;DHT22;10126;50.876;4.470;2022-08-21T09:29:33;34.40;90.40
19928;DHT22;10126;50.876;4.470;2022-08-21T09:31:36;33.50;90.30
19928;DHT22;10126;50.876;4.470;2022-08-21T09:33:39;33.70;90.30
19928;DHT22;10126;50.876;4.470;2022-08-21T09:35:55;33.70;89.30
19928;DHT22;10126;50.876;4.470;2022-08-21T09:38:01;33.60;90.50
19928;DHT22;10126;50.876;4.470;2022-08-21T09:40:19;33.20;90.70
19928;DHT22;10126;50.876;4.470;2022-08-21T09:42:30;33.50;89.80
19928;DHT22;10126;50.876;4.470;2022-08-21T09:44:36;34.70;88.40
19928;DHT22;10126;50.876;4.470;2022-08-21T09:46:50;34.10;87.20
19928;DHT22;10126;50.876;4.470;2022-08-21T09:48:53;33.20;88.20
19928;DHT22;10126;50.876;4.470;2022-08-21T09:51:06;31.90;91.10
19928;DHT22;10126;50.876;4.470;2022-08-21T09:53:26;31.40;91.70
19928;DHT22;10126;50.876;4.470;2022-08-21T09:55:39;31.10;92.50
19928;DHT22;10126;50.876;4.470;2022-08-21T09:58:05;30.00;94.20
19928;DHT22;10126;50.876;4.470;2022-08-21T10:00:15;29.70;94.60
19928;DHT22;10126;50.876;4.470;2022-08-21T10:02:37;29.40;95.50
19928;DHT22;10126;50.876;4.470;2022-08-21T10:04:39;28.30;97.00
19928;DHT22;10126;50.876;4.470;2022-08-21T10:09:19;27.60;99.50
19928;DHT22;10126;50.876;4.470;2022-08-21T10:11:27;27.40;99.90
19928;DHT22;10126;50.876;4.470;2022-08-21T10:13:32;27.80;99.90
19928;DHT22;10126;50.876;4.470;2022-08-21T10:20:47;27.90;99.90
19928;DHT22;10126;50.876;4.470;2022-08-21T10:23:20;27.60;99.90
19928;DHT22;10126;50.876;4.470;2022-08-21T10:25:33;27.50;99.90
19928;DHT22;10126;50.876;4.470;2022-08-21T10:30:03;27.10;99.90
19928;DHT22;10126;50.876;4.470;2022-08-21T10:39:33;26.50;99.90
19928;DHT22;10126;50.876;4.470;2022-08-21T10:44:28;26.20;99.90
19928;DHT22;10126;50.876;4.470;2022-08-21T10:46:46;26.00;99.90
19928;DHT22;10126;50.876;4.470;2022-08-21T10:48:57;25.80;99.90
19928;DHT22;10126;50.876;4.470;2022-08-21T10:55:22;25.70;99.90
19928;DHT22;10126;50.876;4.470;2022-08-21T11:00:03;25.50;99.90
19928;DHT22;10126;50.876;4.470;2022-08-21T11:02:17;25.50;99.90
19928;DHT22;10126;50.876;4.470;2022-08-21T11:05:11;25.50;99.90
19928;DHT22;10126;50.876;4.470;2022-08-21T11:07:00;25.30;99.90
19928;DHT22;10126;50.876;4.470;2022-08-21T11:09:13;25.50;99.90
19928;DHT22;10126;50.876;4.470;2022-08-21T11:11:23;25.30;99.90
19928;DHT22;10126;50.876;4.470;2022-08-21T11:13:43;25.30;99.90
19928;DHT22;10126;50.876;4.470;2022-08-21T11:16:03;25.40;99.90
19928;DHT22;10126;50.876;4.470;2022-08-21T11:18:27;25.50;99.90
19928;DHT22;10126;50.876;4.470;2022-08-21T11:23:38;25.90;99.90
19928;DHT22;10126;50.876;4.470;2022-08-21T11:25:47;26.10;99.90
19928;DHT22;10126;50.876;4.470;2022-08-21T11:27:54;26.00;99.90
19928;DHT22;10126;50.876;4.470;2022-08-21T11:30:02;25.60;99.90
19928;DHT22;10126;50.876;4.470;2022-08-21T11:32:50;25.60;99.90
19928;DHT22;10126;50.876;4.470;2022-08-21T11:35:07;25.70;99.90
19928;DHT22;10126;50.876;4.470;2022-08-21T11:37:17;25.40;99.90
19928;DHT22;10126;50.876;4.470;2022-08-21T11:39:48;25.30;99.90
19928;DHT22;10126;50.876;4.470;2022-08-21T11:44:30;24.60;99.90
19928;DHT22;10126;50.876;4.470;2022-08-21T11:51:00;25.20;99.90
19928;DHT22;10126;50.876;4.470;2022-08-21T11:53:15;25.50;99.90
19928;DHT22;10126;50.876;4.470;2022-08-21T12:02:40;26.10;99.90
19928;DHT22;10126;50.876;4.470;2022-08-21T12:04:53;26.20;99.90
19928;DHT22;10126;50.876;4.470;2022-08-21T12:06:55;26.10;99.90
19928;DHT22;10126;50.876;4.470;2022-08-21T12:08:59;26.10;99.90
19928;DHT22;10126;50.876;4.470;2022-08-21T12:13:23;25.90;99.90
19928;DHT22;10126;50.876;4.470;2022-08-21T12:15:27;26.10;99.90
19928;DHT22;10126;50.876;4.470;2022-08-21T12:17:38;26.30;99.90
19928;DHT22;10126;50.876;4.470;2022-08-21T12:19:39;26.40;99.90
19928;DHT22;10126;50.876;4.470;2022-08-21T12:26:29;27.10;99.90
19928;DHT22;10126;50.876;4.470;2022-08-21T12:28:30;26.60;99.90
19928;DHT22;10126;50.876;4.470;2022-08-21T12:30:43;26.70;99.90
19928;DHT22;10126;50.876;4.470;2022-08-21T12:32:53;27.10;99.90
19928;DHT22;10126;50.876;4.470;2022-08-21T12:35:01;27.50;99.90
19928;DHT22;10126;50.876;4.470;2022-08-21T12:37:06;27.90;99.90
19928;DHT22;10126;50.876;4.470;2022-08-21T12:39:13;27.90;99.90
19928;DHT22;10126;50.876;4.470;2022-08-21T12:41:31;27.90;99.90
19928;DHT22;10126;50.876;4.470;2022-08-21T12:43:39;27.30;99.90
19928;DHT22;10126;50.876;4.470;2022-08-21T12:45:43;27.00;99.90
19928;DHT22;10126;50.876;4.470;2022-08-21T12:47:59;26.80;99.90
19928;DHT22;10126;50.876;4.470;2022-08-21T12:50:15;26.50;99.90
19928;DHT22;10126;50.876;4.470;2022-08-21T12:52:24;26.10;99.90
19928;DHT22;10126;50.876;4.470;2022-08-21T12:54:29;25.90;99.90
19928;DHT22;10126;50.876;4.470;2022-08-21T12:56:32;25.60;99.90
19928;DHT22;10126;50.876;4.470;2022-08-21T12:58:33;25.40;99.90
19928;DHT22;10126;50.876;4.470;2022-08-21T13:00:34;25.70;99.90
19928;DHT22;10126;50.876;4.470;2022-08-21T13:02:42;26.00;99.90
19928;DHT22;10126;50.876;4.470;2022-08-21T13:04:43;25.90;99.90
19928;DHT22;10126;50.876;4.470;2022-08-21T13:06:47;25.50;99.90
19928;DHT22;10126;50.876;4.470;2022-08-21T13:08:55;25.40;99.90
19928;DHT22;10126;50.876;4.470;2022-08-21T13:11:00;25.20;99.90
19928;DHT22;10126;50.876;4.470;2022-08-21T13:13:05;25.10;99.90
19928;DHT22;10126;50.876;4.470;2022-08-21T13:15:07;25.20;99.90
19928;DHT22;10126;50.876;4.470;2022-08-21T13:17:10;25.20;99.90
19928;DHT22;10126;50.876;4.470;2022-08-21T13:19:15;25.40;99.90
19928;DHT22;10126;50.876;4.470;2022-08-21T13:21:17;25.60;99.90
19928;DHT22;10126;50.876;4.470;2022-08-21T13:23:29;25.60;99.90
19928;DHT22;10126;50.876;4.470;2022-08-21T13:25:35;25.90;99.90
19928;DHT22;10126;50.876;4.470;2022-08-21T13:27:36;25.90;99.90
19928;DHT22;10126;50.876;4.470;2022-08-21T13:29:37;26.00;99.90
19928;DHT22;10126;50.876;4.470;2022-08-21T13:31:39;26.30;99.90
19928;DHT22;10126;50.876;4.470;2022-08-21T13:33:43;26.80;99.90
19928;DHT22;10126;50.876;4.470;2022-08-21T13:38:00;26.60;99.90
19928;DHT22;10126;50.876;4.470;2022-08-21T13:40:02;26.60;99.90
19928;DHT22;10126;50.876;4.470;2022-08-21T13:42:11;26.50;99.90
19928;DHT22;10126;50.876;4.470;2022-08-21T13:44:24;26.40;99.90
19928;DHT22;10126;50.876;4.470;2022-08-21T13:46:34;26.50;99.90
19928;DHT22;10126;50.876;4.470;2022-08-21T13:48:36;26.70;99.90
19928;DHT22;10126;50.876;4.470;2022-08-21T13:50:38;26.60;99.90
19928;DHT22;10126;50.876;4.470;2022-08-21T13:52:48;26.30;99.90
19928;DHT22;10126;50.876;4.470;2022-08-21T13:55:07;26.20;99.90
19928;DHT22;10126;50.876;4.470;2022-08-21T13:57:29;25.90;99.90
19928;DHT22;10126;50.876;4.470;2022-08-21T13:59:33;25.90;99.90
19928;DHT22;10126;50.876;4.470;2022-08-21T14:01:56;25.80;99.90
19928;DHT22;10126;50.876;4.470;2022-08-21T14:04:23;26.00;99.90
19928;DHT22;10126;50.876;4.470;2022-08-21T14:06:27;26.00;99.90
19928;DHT22;10126;50.876;4.470;2022-08-21T14:08:34;26.10;99.90
19928;DHT22;10126;50.876;4.470;2022-08-21T14:10:48;26.10;99.90